Aviation Digital Data Service (ADDS)

Output produced by METARs form (1332 UTC 19 July 2018)
found at http://www.aviationweather.gov/adds/metars/
 
KGTR 191324Z 17003KT 10SM VCTS -RA SCT006 OVC013 24/23 A2997 RMK AO2 LTG DSNT ALQDS TSB05E20B24RAB12 PNO $
KGTR 191305Z 00000KT 10SM VCTS BKN013 OVC022 24/23 A2997 RMK AO2 LTG DSNT N-SE TSB05 PNO $
KGTR 191256Z 00000KT 10SM SCT013 BKN022 OVC120 24/23 A2997 RMK AO2 LTG DSNT N-SE TSE09 SLP148 T02440233 PNO $
KGTR 191251Z 00000KT 10SM FEW011 BKN022 OVC120 24/23 A2997 RMK AO2 LTG DSNT N-SE TSE09 PNO $
KGTR 191215Z 00000KT 10SM OVC050 24/23 A2995 RMK AO2 LTG DSNT E AND SE AND NW TSE09 PNO $
KGTR 191156Z 00000KT 10SM VCTS OVC050 24/23 A2995 RMK AO2 LTG DSNT N AND SE AND NW TSB53 SLP140 6//// 7//// T02440233 10250 20233 51011 PNO $
KGTR 191056Z 28003KT 10SM BKN060 OVC090 24/23 A2993 RMK AO2 LTG DSNT E AND SE SLP136 T02390228 PNO $
KGTR 190956Z AUTO 00000KT 10SM OVC100 24/23 A2993 RMK AO2 SLP135 T02390228 PNO $
KGTR 190856Z AUTO 25003KT 10SM CLR 23/23 A2992 RMK AO2 SLP129 6//// T02330228 55005 PNO $
KGTR 190756Z AUTO 00000KT 10SM CLR 24/23 A2991 RMK AO2 SLP127 T02390228 PNO $
KGTR 190656Z AUTO 28004KT 10SM CLR 24/23 A2991 RMK AO2 SLP129 T02390233 PNO $
KGTR 190556Z AUTO 32003KT 9SM CLR 25/23 A2993 RMK AO2 SLP134 6//// T02500233 10306 20250 403440228 58003 PNO $
KGTR 190525Z AUTO 00000KT 10SM SCT028 SCT034 BKN120 26/23 A2995 RMK AO2 PNO $
KGTR 190456Z AUTO 30003KT 10SM FEW014 OVC026 26/23 A2995 RMK AO2 LTG DSNT E SLP142 T02610233 PNO $
KGTR 190440Z AUTO 17008KT 10SM FEW014 BKN022 OVC041 26/23 A2996 RMK AO2 LTG DSNT E PNO $
KGTR 190356Z AUTO 32004KT 10SM FEW041 26/24 A2995 RMK AO2 SLP140 T02560239 PNO $
KGTR 190256Z AUTO 27005KT 10SM CLR 26/24 A2994 RMK AO2 SLP138 6//// T02610239 53010 PNO $
KGTR 190156Z AUTO 27004KT 10SM CLR 27/24 A2992 RMK AO2 SLP133 T02720244 PNO $
KGTR 190056Z AUTO 29005KT 10SM CLR 29/26 A2992 RMK AO2 SLP131 T02890261 PNO $
KGTR 182356Z 33003KT 10SM CLR 31/26 A2991 RMK AO2 SLP128 6//// T03060261 10344 20306 53001 PNO $
KGTR 182256Z 01005KT 10SM CLR 32/26 A2991 RMK AO2 SLP127 T03170256 PNO $
KGTR 182156Z 01005KT 10SM CLR 33/24 A2991 RMK AO2 SLP126 T03280244 PNO $
KGTR 182056Z 06004KT 10SM FEW040 33/24 A2991 RMK AO2 SLP126 6//// T03330244 57024 PNO $
KGTR 181956Z VRB03KT 10SM FEW040 33/25 A2993 RMK AO2 SLP133 T03280250 PNO $
KGTR 181856Z 01003KT 10SM FEW043 33/26 A2996 RMK AO2 SLP142 T03330256 PNO $
KGTR 181756Z VRB03KT 10SM FEW043 31/25 A2998 RMK AO2 SLP151 6//// T03060250 10317 20233 56010 PNO $
KGTR 181720Z 00000KT 10SM FEW019 31/25 A2998 RMK AO2 PNO $
KGTR 181656Z 00000KT 10SM BKN019 31/26 A2999 RMK AO2 SLP155 T03060256 PNO $
KGTR 181654Z 06003KT 10SM BKN019 31/26 A2999 RMK AO2 PNO $
KGTR 181609Z VRB03KT 10SM FEW020 29/26 A3001 RMK AO2 PNO $
KGTR 181556Z 00000KT 10SM BKN018 28/25 A3001 RMK AO2 SLP160 T02830250 PNO $
KGTR 181456Z VRB05KT 10SM BKN011 OVC016 28/25 A3001 RMK AO2 SLP162 6//// T02780250 51001 PNO $
KGTR 181432Z 02004KT 10SM BKN013 28/25 A3001 RMK AO2 PNO $
KGTR 181423Z 35004KT 10SM FEW009 SCT015 28/24 A3001 RMK AO2 PNO $
KGTR 181403Z 34004KT 10SM SCT016 27/24 A3001 RMK AO2 PNO $
KGTR 181356Z 34003KT 10SM BKN016 27/24 A3001 RMK AO2 SLP161 T02720244 PNO $
KGTR 181329Z 36004KT 10SM FEW007 BKN016 27/24 A3001 RMK AO2 PNO $
KGTR 181256Z 02003KT 10SM FEW016 25/24 A3001 RMK AO2 SLP162 T02500239 PNO $
KGTR 181241Z 01003KT 10SM SCT016 25/24 A3002 RMK AO2 PNO $
KGTR 181211Z 00000KT 10SM BKN016 24/23 A3001 RMK AO2 PNO $
KGTR 181156Z 00000KT 10SM FEW001 23/23 A3001 RMK AO2 SLP162 6//// 7//// T02330228 10233 20228 51012 PNO $
KGTR 181145Z 00000KT 7SM FEW001 23/23 A3001 RMK AO2 PNO $
KGTR 181112Z 00000KT 10SM SCT015 23/23 A3000 RMK AO2 PNO $
KGTR 181105Z 00000KT 9SM BKN015 23/22 A3001 RMK AO2 PNO $
KGTR 181056Z AUTO 00000KT 10SM FEW015 23/22 A3000 RMK AO2 SLP159 T02280222 PNO $
KGTR 181043Z AUTO 06003KT 10SM SCT015 23/23 A3000 RMK AO2 PNO $
KGTR 181033Z AUTO 06003KT 10SM BKN015 23/22 A3000 RMK AO2 PNO $
KGTR 180956Z AUTO 04003KT 9SM CLR 23/22 A2999 RMK AO2 SLP155 T02280222 PNO $
KGTR 180856Z AUTO 00000KT 9SM CLR 23/23 A2997 RMK AO2 SLP149 6//// T02280228 55003 PNO $
KGTR 180756Z AUTO 00000KT 10SM CLR 23/23 A2997 RMK AO2 SLP147 T02330228 PNO $
KGTR 180656Z AUTO 00000KT 10SM CLR 23/23 A2997 RMK AO2 SLP148 T02330228 PNO $
KGTR 180556Z AUTO 17003KT 10SM CLR 23/23 A2998 RMK AO2 SLP152 6//// T02330228 10300 20228 403500211 58009 PNO $
KGTR 180456Z AUTO 00000KT 10SM CLR 23/23 A2999 RMK AO2 SLP155 T02330228 PNO $
KGTR 180356Z AUTO 24003KT 10SM CLR 23/23 A3002 RMK AO2 TSE08 SLP163 T02330228 PNO $
KGTR 180256Z AUTO 00000KT 10SM VCTS FEW095 23/22 A3001 RMK AO2 LTG DSNT E-S RAE05 SLP161 6//// T02330222 50016 PNO $
KGTR 180220Z AUTO 06008KT 10SM VCTS SCT031 BKN047 BKN075 24/22 A3002 RMK AO2 LTG DSNT E AND SE RAE05 PNO $
KGTR 180156Z AUTO 01010KT 10SM -TSRA FEW009 BKN026 OVC080 24/22 A3003 RMK AO2 LTG DSNT N-SE PRESRR SLP168 T02390222 PNO $
KGTR 180150Z AUTO 01010KT 10SM -TSRA FEW009 BKN026 OVC085 24/23 A3002 RMK AO2 LTG DSNT N-SE PRESRR PNO $
KGTR 180056Z AUTO 32009G15KT 6SM TSRA BR FEW030 BKN047 24/22 A2999 RMK AO2 LTG DSNT N-SE TSE24B26RAB30 SLP156 T02390222 PNO $
KGTR 180026Z 22015G19KT 10SM TS FEW029 SCT050 BKN065 27/22 A2997 RMK AO2 LTG DSNT ALQDS TSE24B26 PNO $
KGTR 172356Z 16005KT 10SM VCTS CLR 30/24 A2996 RMK AO2 LTG DSNT ALQDS TSB46 SLP145 6//// T03000244 10350 20294 51007 PNO $
KGTR 172352Z 16006KT 10SM VCTS CLR 29/24 A2996 RMK AO2 LTG DSNT ALQDS TSB46 PNO $
KGTR 172256Z 22003KT 10SM CLR 31/24 A2995 RMK AO2 LTG DSNT SE TSB00E39 SLP141 T03060239 PNO $
KGTR 172245Z 00000KT 10SM CLR 31/23 A2996 RMK AO2 TSB00E39 PNO $
KGTR 172206Z 25007KT 10SM TS CLR 31/25 A2995 RMK AO2 LTG DSNT S AND SW TSB00 PNO $
KGTR 172156Z 27005KT 10SM CLR 30/24 A2994 RMK AO2 LTG DSNT S AND SW SLP137 T03000244 PNO $
KGTR 172056Z 30005KT 10SM CLR 34/24 A2995 RMK AO2 LTG DSNT SW SLP141 6//// T03390244 58022 PNO $
KGTR 171956Z 25003KT 10SM FEW040 33/24 A2998 RMK AO2 SLP149 T03330239 PNO $
KGTR 171856Z 33004KT 10SM FEW046 33/24 A3000 RMK AO2 SLP157 T03330244 PNO $
KGTR 171817Z 22005KT 10SM FEW002 32/25 A3001 RMK AO2 PNO $
KGTR 171756Z 00000KT 10SM FEW028 32/25 A3002 RMK AO2 SLP163 6//// T03220250 10328 20222 58007 PNO $
KGTR 171656Z 24004KT 10SM CLR 31/24 A3003 RMK AO2 SLP168 T03060244 PNO $
KGTR 171556Z 00000KT 10SM CLR 29/24 A3003 RMK AO2 SLP169 T02890239 PNO $
KGTR 171456Z 19003KT 10SM CLR 27/24 A3004 RMK AO2 SLP171 6//// T02720239 58001 PNO $
KGTR 171356Z 00000KT 10SM CLR 27/23 A3006 RMK AO2 SLP177 T02670233 PNO $
KGTR 171339Z 00000KT 10SM FEW009 26/23 A3006 RMK AO2 PNO $
KGTR 171256Z 21005KT 10SM CLR 24/23 A3005 RMK AO2 SLP176 T02390228 PNO $
KGTR 171220Z 18005KT 10SM SCT003 23/23 A3005 RMK AO2 PNO $
KGTR 171156Z 21004KT 10SM CLR 22/22 A3004 RMK AO2 SLP173 6//// 7//// T02220222 10228 20211 53009 PNO $
KGTR 171108Z 20003KT 1 3/4SM BR SCT046 22/21 A3003 RMK AO2 PNO $
KGTR 171056Z 20003KT 3SM BR FEW047 22/21 A3003 RMK AO2 SLP168 T02170211 PNO $
KGTR 171041Z AUTO 19004KT 2SM BR SCT047 22/21 A3003 RMK AO2 PNO $
KGTR 171017Z AUTO 18004KT 1 1/2SM BR SCT047 22/22 A3003 RMK AO2 PNO $
KGTR 170956Z AUTO 19003KT 6SM BR CLR 22/22 A3002 RMK AO2 SLP166 T02170217 PNO $
KGTR 170856Z AUTO 00000KT 6SM BR CLR 22/22 A3001 RMK AO2 SLP163 6//// T02220217 53004 PNO $
KGTR 170756Z AUTO 00000KT 10SM FEW037 23/22 A3000 RMK AO2 SLP160 T02280222 PNO $
KGTR 170656Z AUTO 00000KT 10SM CLR 23/22 A3000 RMK AO2 SLP160 T02280222 PNO $
KGTR 170556Z AUTO 00000KT 10SM CLR 23/22 A3000 RMK AO2 SLP159 6//// T02280222 10256 20228 403220228 56008 PNO $
KGTR 170456Z AUTO 18003KT 10SM CLR 23/22 A3001 RMK AO2 SLP161 T02280222 PNO $
KGTR 170356Z AUTO 20004KT 10SM CLR 23/22 A3002 RMK AO2 SLP164 T02280222 PNO $
KGTR 170256Z AUTO 00000KT 10SM CLR 24/23 A3003 RMK AO2 SLP167 6//// T02390228 53008 PNO $
KGTR 170156Z AUTO 24004KT 10SM CLR 24/23 A3002 RMK AO2 SLP163 T02440228 PNO $
KGTR 170056Z AUTO 22004KT 10SM CLR 25/23 A2999 RMK AO2 SLP153 T02500233 PNO $
KGTR 162356Z 21003KT 10SM CLR 26/23 A3000 RMK AO2 RAE06 SLP159 6//// T02560233 10322 20250 53007 PNO $
KGTR 162256Z 18004KT 10SM -RA SCT110 26/23 A2998 RMK AO2 LTG DSNT N AND NW TSB06E21RAE26B53 SLP151 T02560233 PNO $
KGTR 162227Z 19006KT 10SM FEW025 SCT050 BKN120 25/23 A2999 RMK AO2 LTG DSNT NE AND NW TSB06E21RAE26 PNO $
KGTR 162212Z 22009KT 10SM -TSRA FEW025 SCT032 BKN050 25/23 A2999 RMK AO2 TSB06 PNO $
KGTR 162156Z 21008KT 10SM -RA FEW023 SCT032 BKN046 26/24 A2999 RMK AO2 TSE09RAB31 SLP153 T02560239 PNO $
KGTR 162111Z 18011KT 10SM SCT016 29/24 A2998 RMK AO2 LTG DSNT SE AND SW TSE09 PNO $
KGTR 162056Z 12011KT 10SM VCTS BKN016 29/24 A2998 RMK AO2 LTG DSNT SW AND W TSE03B45 SLP152 6//// T02890244 50005 PNO $
KGTR 162051Z 13010KT 10SM VCTS SCT016 31/27 A2998 RMK AO2 LTG DSNT SW AND W TSE03B45 PNO $
KGTR 162026Z 19008KT 10SM SCT024 BKN034 30/27 A2997 RMK AO2 LTG DSNT E AND SW AND W TSE03 PNO $
KGTR 162009Z 18008KT 10SM OVC024 29/26 A2997 RMK AO2 LTG DSNT SE AND W TSE03 PNO $
KGTR 161956Z 14010G14KT 10SM VCTS OVC026 31/26 A2997 RMK AO2 LTG DSNT SE-W TSB48RAB24E42 SLP148 T03060256 PNO $
KGTR 161954Z 12011G14KT 10SM VCTS OVC026 31/26 A2997 RMK AO2 LTG DSNT SE-W TSB48RAB24E42 PNO $
KGTR 161856Z 00000KT 10SM OVC026 32/26 A3000 RMK AO2 LTG DSNT SE-SW SLP159 T03170256 PNO $
KGTR 161838Z VRB03KT 10SM BKN026 31/25 A3001 RMK AO2 LTG DSNT SE-SW PNO $
KGTR 161807Z 03004KT 10SM 32/26 A3002 RMK AO2 LTG DSNT S AND SW PNO $
KGTR 161756Z 05007KT 10SM BKN022 31/26 A3002 RMK AO2 LTG DSNT S AND SW SLP165 6//// T03110256 10311 20239 58008 PNO $
KGTR 161656Z 00000KT 10SM BKN024 BKN060 31/25 A3004 RMK AO2 SLP172 T03110250 PNO $
KGTR 161633Z 31004KT 10SM BKN022 BKN028 31/26 A3005 RMK AO2 PNO $
KGTR 161556Z 01003KT 10SM SCT020 BKN055 30/25 A3005 RMK AO2 SLP174 T03000250 PNO $
KGTR 161456Z 00000KT 10SM CLR 28/24 A3005 RMK AO2 SLP174 6//// T02830244 51004 PNO $
KGTR 161356Z 19006KT 10SM FEW001 27/24 A3004 RMK AO2 SLP173 T02720244 PNO $